createdAt,value
2018-08-25T00:02:00.301Z,2.52
2018-08-25T00:04:28.525Z,2.40
2018-08-25T00:06:56.826Z,2.62
2018-08-25T00:09:25.027Z,3.08
2018-08-25T00:11:53.311Z,2.65
2018-08-25T00:14:21.629Z,3.10
2018-08-25T00:16:49.857Z,4.10
2018-08-25T00:19:18.099Z,2.67
2018-08-25T00:21:46.337Z,3.60
2018-08-25T00:24:14.592Z,2.98
2018-08-25T00:26:43.061Z,3.52
2018-08-25T00:29:11.274Z,3.70
2018-08-25T00:31:39.527Z,3.67
2018-08-25T00:34:07.719Z,3.95
2018-08-25T00:36:36.001Z,4.17
2018-08-25T00:39:06.952Z,2.85
2018-08-25T00:41:35.299Z,2.72
2018-08-25T00:44:03.517Z,2.05
2018-08-25T00:46:31.817Z,1.50
2018-08-25T00:49:00.077Z,1.20
2018-08-25T00:51:28.279Z,1.32
2018-08-25T00:53:56.667Z,1.55
2018-08-25T00:56:24.870Z,1.00
2018-08-25T00:58:53.081Z,1.70
2018-08-25T01:01:21.277Z,1.65
2018-08-25T01:03:49.510Z,1.70
2018-08-25T01:06:17.686Z,1.80
2018-08-25T01:08:45.953Z,1.35
2018-08-25T01:11:14.201Z,1.50
2018-08-25T01:13:42.478Z,1.80
2018-08-25T01:16:10.711Z,1.67
2018-08-25T01:18:38.973Z,1.52
2018-08-25T01:21:07.172Z,2.12
2018-08-25T01:23:35.406Z,1.20
2018-08-25T01:26:03.600Z,1.57
2018-08-25T01:28:31.843Z,1.30
2018-08-25T01:31:00.085Z,1.12
2018-08-25T01:33:28.315Z,1.22
2018-08-25T01:35:56.558Z,0.93
2018-08-25T01:38:24.878Z,1.42
2018-08-25T01:40:53.161Z,1.10
2018-08-25T01:43:21.477Z,1.00
2018-08-25T01:45:49.754Z,1.57
2018-08-25T01:48:17.983Z,1.00
2018-08-25T01:50:46.263Z,1.30
2018-08-25T01:53:14.481Z,1.10
2018-08-25T01:55:42.710Z,1.12
2018-08-25T01:58:10.957Z,1.20
2018-08-25T02:00:39.199Z,1.30
2018-08-25T02:03:07.464Z,1.10
2018-08-25T02:05:35.725Z,1.15
2018-08-25T02:08:05.230Z,1.27
2018-08-25T02:10:34.399Z,1.45
2018-08-25T02:13:02.613Z,2.02
2018-08-25T02:15:30.841Z,1.57
2018-08-25T02:17:59.089Z,1.60
2018-08-25T02:20:27.328Z,1.10
2018-08-25T02:22:55.559Z,1.55
2018-08-25T02:25:23.842Z,1.10
2018-08-25T02:27:52.062Z,1.10
2018-08-25T02:30:20.257Z,0.90
2018-08-25T02:32:48.240Z,1.10
2018-08-25T02:35:16.513Z,1.15
2018-08-25T02:37:44.790Z,1.10
2018-08-25T02:40:13.385Z,1.25
2018-08-25T02:42:41.708Z,1.55
2018-08-25T02:45:09.925Z,1.57
2018-08-25T02:47:38.188Z,1.60
2018-08-25T02:50:06.437Z,1.60
2018-08-25T02:52:34.650Z,1.72
2018-08-25T02:55:02.894Z,2.02
2018-08-25T02:57:31.147Z,1.90
2018-08-25T02:59:59.443Z,2.12
2018-08-25T03:02:27.647Z,2.17
2018-08-25T03:04:55.952Z,2.35
2018-08-25T03:07:24.166Z,2.77
2018-08-25T03:09:52.377Z,2.90
2018-08-25T03:12:20.601Z,3.25
2018-08-25T03:14:48.841Z,3.65
2018-08-25T03:17:17.055Z,4.10
2018-08-25T03:19:45.332Z,4.58
2018-08-25T03:22:13.561Z,5.62
2018-08-25T03:24:41.789Z,5.45
2018-08-25T03:27:10.012Z,5.90
2018-08-25T03:29:38.269Z,5.97
2018-08-25T03:32:06.681Z,6.30
2018-08-25T03:34:34.998Z,5.80
2018-08-25T03:37:03.233Z,6.78
2018-08-25T03:39:31.493Z,7.40
2018-08-25T03:41:59.678Z,7.70
2018-08-25T03:44:27.942Z,8.25
2018-08-25T03:46:56.178Z,9.73
2018-08-25T03:49:24.392Z,8.45
2018-08-25T03:51:52.660Z,7.00
2018-08-25T03:54:20.871Z,5.55
2018-08-25T03:56:49.101Z,4.17
2018-08-25T03:59:17.450Z,4.70
2018-08-25T04:01:45.754Z,3.90
2018-08-25T04:04:13.954Z,3.40
2018-08-25T04:06:42.262Z,1.90
2018-08-25T04:09:12.657Z,2.30
2018-08-25T04:11:40.869Z,1.87
2018-08-25T04:14:10.229Z,1.87
2018-08-25T04:16:38.231Z,1.70
2018-08-25T04:19:06.509Z,1.25
2018-08-25T04:21:34.726Z,1.20
2018-08-25T04:24:03.675Z,1.60
2018-08-25T04:26:31.918Z,0.93
2018-08-25T04:29:00.143Z,0.82
2018-08-25T04:31:28.341Z,0.90
2018-08-25T04:33:56.537Z,1.12
2018-08-25T04:36:24.737Z,0.93
2018-08-25T04:38:52.987Z,0.72
2018-08-25T04:41:21.336Z,1.10
2018-08-25T04:43:49.582Z,1.10
2018-08-25T04:46:17.785Z,1.20
2018-08-25T04:48:46.061Z,0.80
2018-08-25T04:51:14.775Z,1.10
2018-08-25T04:53:42.739Z,1.05
2018-08-25T04:56:10.917Z,1.10
2018-08-25T04:58:39.141Z,0.80
2018-08-25T05:01:07.362Z,1.10
2018-08-25T05:03:35.582Z,1.10
2018-08-25T05:06:03.789Z,0.93
2018-08-25T05:08:32.014Z,1.17
2018-08-25T05:11:00.307Z,1.27
2018-08-25T05:13:28.609Z,0.88
2018-08-25T05:15:56.793Z,0.82
2018-08-25T05:18:25.008Z,0.90
2018-08-25T05:20:53.471Z,1.20
2018-08-25T05:23:21.866Z,0.78
2018-08-25T05:25:50.093Z,1.10
2018-08-25T05:28:18.297Z,1.15
2018-08-25T05:30:46.677Z,1.20
2018-08-25T05:33:14.890Z,1.10
2018-08-25T05:35:43.089Z,1.00
2018-08-25T05:38:11.347Z,1.10
2018-08-25T05:40:39.596Z,1.10
2018-08-25T05:43:07.873Z,1.00
2018-08-25T05:45:36.941Z,1.20
2018-08-25T05:48:05.343Z,0.78
2018-08-25T05:50:33.649Z,1.10
2018-08-25T05:53:01.994Z,1.30
2018-08-25T05:55:30.241Z,0.95
2018-08-25T05:57:58.445Z,1.10
2018-08-25T06:00:26.697Z,1.00
2018-08-25T06:02:54.990Z,1.40
2018-08-25T06:05:23.266Z,1.15
2018-08-25T06:07:51.545Z,1.32
2018-08-25T06:10:19.765Z,1.42
2018-08-25T06:12:47.962Z,1.60
2018-08-25T06:15:16.223Z,1.10
2018-08-25T06:17:44.514Z,1.20
2018-08-25T06:20:12.829Z,1.50
2018-08-25T06:22:41.114Z,1.22
2018-08-25T06:25:09.785Z,1.70
2018-08-25T06:27:37.975Z,1.20
2018-08-25T06:30:06.278Z,1.37
2018-08-25T06:32:34.510Z,1.50
2018-08-25T06:35:02.851Z,1.60
2018-08-25T06:37:31.094Z,1.25
2018-08-25T06:39:59.314Z,1.87
2018-08-25T06:42:27.525Z,1.70
2018-08-25T06:44:55.753Z,1.65
2018-08-25T06:47:24.019Z,1.90
2018-08-25T06:49:52.389Z,1.67
2018-08-25T06:52:20.601Z,1.47
2018-08-25T06:54:48.929Z,1.60
2018-08-25T06:57:17.135Z,2.10
2018-08-25T06:59:45.461Z,2.67
2018-08-25T07:02:13.687Z,2.05
2018-08-25T07:04:41.961Z,2.00
2018-08-25T07:07:10.185Z,1.80
2018-08-25T07:09:38.512Z,2.58
2018-08-25T07:12:06.809Z,3.12
2018-08-25T07:14:35.053Z,1.82
2018-08-25T07:17:03.304Z,2.05
2018-08-25T07:19:31.584Z,1.90
2018-08-25T07:21:59.858Z,1.52
2018-08-25T07:24:28.127Z,2.00
2018-08-25T07:26:56.384Z,2.22
2018-08-25T07:29:24.582Z,2.47
2018-08-25T07:31:52.809Z,2.30
2018-08-25T07:34:21.029Z,2.25
2018-08-25T07:36:49.254Z,1.50
2018-08-25T07:39:17.555Z,1.83
2018-08-25T07:41:45.810Z,2.22
2018-08-25T07:44:14.110Z,2.00
2018-08-25T07:46:42.357Z,1.75
2018-08-25T07:49:10.634Z,1.63
2018-08-25T07:51:38.885Z,2.07
2018-08-25T07:54:07.141Z,1.40
2018-08-25T07:56:35.511Z,1.43
2018-08-25T07:59:03.840Z,1.10
2018-08-25T08:01:32.025Z,1.80
2018-08-25T08:04:00.310Z,1.20
2018-08-25T08:06:29.490Z,1.30
2018-08-25T08:08:57.697Z,1.40
2018-08-25T08:11:25.954Z,2.20
2018-08-25T08:13:54.256Z,1.67
2018-08-25T08:16:22.518Z,1.87
2018-08-25T08:18:50.782Z,1.20
2018-08-25T08:21:19.050Z,1.40
2018-08-25T08:23:47.281Z,1.75
2018-08-25T08:26:15.521Z,1.32
2018-08-25T08:28:43.833Z,1.35
2018-08-25T08:31:12.101Z,1.45
2018-08-25T08:33:40.435Z,1.27
2018-08-25T08:36:08.691Z,1.35
2018-08-25T08:38:38.056Z,1.60
2018-08-25T08:41:06.385Z,1.50
2018-08-25T08:43:34.668Z,1.87
2018-08-25T08:46:03.254Z,1.60
2018-08-25T08:48:31.505Z,1.30
2018-08-25T08:50:59.737Z,1.67
2018-08-25T08:53:27.945Z,1.63
2018-08-25T08:55:55.940Z,1.20
2018-08-25T08:58:24.058Z,1.30
2018-08-25T09:00:52.317Z,1.40
2018-08-25T09:03:20.592Z,1.03
2018-08-25T09:08:24.190Z,1.30
2018-08-25T09:10:52.421Z,1.40
2018-08-25T09:13:20.699Z,1.30
2018-08-25T09:15:48.925Z,1.00
2018-08-25T09:18:17.137Z,1.30
2018-08-25T09:20:45.384Z,1.03
2018-08-25T09:23:13.627Z,1.30
2018-08-25T09:25:41.869Z,1.00
2018-08-25T09:28:10.186Z,0.90
2018-08-25T09:30:38.444Z,0.60
2018-08-25T09:33:06.651Z,0.63
2018-08-25T09:35:34.918Z,1.00
2018-08-25T09:38:03.653Z,0.67
2018-08-25T09:40:31.863Z,0.90
2018-08-25T09:43:00.121Z,0.87
2018-08-25T09:45:28.418Z,0.70
2018-08-25T09:47:56.684Z,0.60
2018-08-25T09:50:24.901Z,0.80
2018-08-25T09:52:53.177Z,0.77
2018-08-25T09:55:21.401Z,0.90
2018-08-25T09:57:49.466Z,0.60
2018-08-25T10:00:17.493Z,0.97
2018-08-25T10:02:45.745Z,0.87
2018-08-25T10:05:15.895Z,0.70
2018-08-25T10:07:44.141Z,0.80
2018-08-25T10:10:12.401Z,0.63
2018-08-25T10:12:40.614Z,0.60
2018-08-25T10:15:08.973Z,0.80
2018-08-25T10:17:37.217Z,0.50
2018-08-25T10:20:05.462Z,0.60
2018-08-25T10:22:33.674Z,0.60
2018-08-25T10:25:02.551Z,1.13
2018-08-25T10:27:30.561Z,1.10
2018-08-25T10:29:58.535Z,0.97
2018-08-25T10:32:26.534Z,2.00
2018-08-25T10:34:54.558Z,0.80
2018-08-25T10:37:22.519Z,0.50
2018-08-25T10:39:50.487Z,0.77
2018-08-25T10:42:18.452Z,0.80
2018-08-25T10:44:46.471Z,1.10
2018-08-25T10:47:14.476Z,1.00
2018-08-25T10:49:42.511Z,1.10
2018-08-25T10:52:10.609Z,1.10
2018-08-25T10:54:38.626Z,1.10
2018-08-25T10:57:06.614Z,1.60
2018-08-25T10:59:34.653Z,1.60
2018-08-25T11:02:02.681Z,1.20
2018-08-25T11:04:32.558Z,1.17
2018-08-25T11:07:00.674Z,1.10
2018-08-25T11:09:28.675Z,0.90
2018-08-25T11:11:56.643Z,1.10
2018-08-25T11:14:24.757Z,1.00
2018-08-25T11:16:52.768Z,1.07
2018-08-25T11:19:20.769Z,1.00
2018-08-25T11:21:48.805Z,0.73
2018-08-25T11:24:16.817Z,0.90
2018-08-25T11:26:44.842Z,1.00
2018-08-25T11:29:12.834Z,0.80
2018-08-25T11:31:40.823Z,1.00
2018-08-25T11:34:08.787Z,1.23
2018-08-25T11:36:36.793Z,1.10
2018-08-25T11:39:07.617Z,1.43
2018-08-25T11:41:35.622Z,1.03
2018-08-25T11:44:03.715Z,1.33
2018-08-25T11:46:31.601Z,1.20
2018-08-25T11:48:59.597Z,0.90
2018-08-25T11:51:27.585Z,1.10
2018-08-25T11:53:55.571Z,1.20
2018-08-25T11:56:23.636Z,1.00
2018-08-25T11:58:51.609Z,1.13
2018-08-25T12:01:19.613Z,1.70
2018-08-25T12:03:47.595Z,1.40
2018-08-25T12:06:15.691Z,1.20
2018-08-25T12:08:43.657Z,2.20
2018-08-25T12:11:11.613Z,1.00
2018-08-25T12:13:39.664Z,1.00
2018-08-25T12:16:07.642Z,1.00
2018-08-25T12:18:35.673Z,1.00
2018-08-25T12:21:03.637Z,1.13
2018-08-25T12:23:31.629Z,1.00
2018-08-25T12:25:59.616Z,0.90
2018-08-25T12:28:27.625Z,0.70
2018-08-25T12:30:55.606Z,0.70
2018-08-25T12:33:23.603Z,1.10
2018-08-25T12:35:51.565Z,0.90
2018-08-25T12:38:19.569Z,0.90
2018-08-25T12:40:47.543Z,1.07
2018-08-25T12:43:15.662Z,0.80
2018-08-25T12:45:43.506Z,1.07
2018-08-25T12:48:11.522Z,0.87
2018-08-25T12:50:39.481Z,0.93
2018-08-25T12:53:07.573Z,0.70
2018-08-25T12:55:35.662Z,1.00
2018-08-25T12:58:03.759Z,0.80
2018-08-25T13:00:31.737Z,1.30
2018-08-25T13:02:59.718Z,0.90
2018-08-25T13:05:27.732Z,1.67
2018-08-25T13:07:55.718Z,0.80
2018-08-25T13:10:23.676Z,0.73
2018-08-25T13:12:51.722Z,0.97
2018-08-25T13:15:19.778Z,1.00
2018-08-25T13:17:47.788Z,1.30
2018-08-25T13:20:15.753Z,1.00
2018-08-25T13:22:43.778Z,1.20
2018-08-25T13:25:11.732Z,1.03
2018-08-25T13:27:39.762Z,0.80
2018-08-25T13:30:07.775Z,1.50
2018-08-25T13:32:35.732Z,1.40
2018-08-25T13:35:03.714Z,1.03
2018-08-25T13:37:31.729Z,1.30
2018-08-25T13:39:59.815Z,1.63
2018-08-25T13:42:27.927Z,0.80
2018-08-25T13:44:55.957Z,0.80
2018-08-25T13:47:23.964Z,0.93
2018-08-25T13:49:51.998Z,0.60
2018-08-25T13:52:20.012Z,1.23
2018-08-25T13:54:47.990Z,1.00
2018-08-25T13:57:16.005Z,1.03
2018-08-25T13:59:44.092Z,0.90
2018-08-25T14:02:12.534Z,1.00
2018-08-25T14:04:40.701Z,1.00
2018-08-25T14:07:08.705Z,1.00
2018-08-25T14:09:36.695Z,0.80
2018-08-25T14:12:04.729Z,1.30
2018-08-25T14:14:32.730Z,1.43
2018-08-25T14:17:01.026Z,1.03
2018-08-25T14:19:28.990Z,0.90
2018-08-25T14:21:57.037Z,0.90
2018-08-25T14:24:25.024Z,0.60
2018-08-25T14:26:52.987Z,0.93
2018-08-25T14:29:21.033Z,0.90
2018-08-25T14:31:49.071Z,0.80
2018-08-25T14:34:17.038Z,0.70
2018-08-25T14:36:45.072Z,1.23
2018-08-25T14:39:13.086Z,1.30
2018-08-25T14:41:41.081Z,0.83
2018-08-25T14:44:09.029Z,0.97
2018-08-25T14:46:38.123Z,1.03
2018-08-25T14:49:06.402Z,1.07
2018-08-25T14:51:34.381Z,1.00
2018-08-25T14:54:02.440Z,1.03
2018-08-25T14:56:30.450Z,0.83
2018-08-25T14:58:58.927Z,1.00
2018-08-25T15:01:27.052Z,1.60
2018-08-25T15:03:55.342Z,1.10
2018-08-25T15:06:23.293Z,0.90
2018-08-25T15:08:51.321Z,1.07
2018-08-25T15:11:19.357Z,0.80
2018-08-25T15:13:47.425Z,0.80
2018-08-25T15:16:15.369Z,0.70
2018-08-25T15:18:43.406Z,0.70
2018-08-25T15:21:11.317Z,1.07
2018-08-25T15:23:39.429Z,1.10
2018-08-25T15:26:07.411Z,0.70
2018-08-25T15:28:35.458Z,1.40
2018-08-25T15:31:03.519Z,0.93
2018-08-25T15:33:31.415Z,1.00
2018-08-25T15:35:59.365Z,1.27
2018-08-25T15:38:27.713Z,0.90
2018-08-25T15:40:55.993Z,1.00
2018-08-25T15:43:24.270Z,1.03
2018-08-25T15:45:52.513Z,1.10
2018-08-25T15:48:20.836Z,1.20
2018-08-25T15:50:49.058Z,1.10
2018-08-25T15:53:17.394Z,0.90
2018-08-25T15:55:45.617Z,0.70
2018-08-25T15:58:13.906Z,1.00
2018-08-25T16:00:42.131Z,0.83
2018-08-25T16:03:10.734Z,1.20
2018-08-25T16:05:39.030Z,1.00
2018-08-25T16:08:07.293Z,0.80
2018-08-25T16:10:35.581Z,1.30
2018-08-25T16:13:03.645Z,1.20
2018-08-25T16:15:31.629Z,1.00
2018-08-25T16:17:59.682Z,1.20
2018-08-25T16:20:27.664Z,1.37
2018-08-25T16:22:55.672Z,1.30
2018-08-25T16:25:23.644Z,1.03
2018-08-25T16:27:51.602Z,1.40
2018-08-25T16:30:19.641Z,1.50
2018-08-25T16:32:47.627Z,1.40
2018-08-25T16:35:15.764Z,1.27
2018-08-25T16:37:43.771Z,1.93
2018-08-25T16:40:12.033Z,1.30
2018-08-25T16:42:40.036Z,1.10
2018-08-25T16:45:08.089Z,1.47
2018-08-25T16:47:36.093Z,1.70
2018-08-25T16:50:04.077Z,1.00
2018-08-25T16:52:32.081Z,1.47
2018-08-25T16:55:00.070Z,1.10
2018-08-25T16:57:28.029Z,1.40
2018-08-25T16:59:56.106Z,1.27
2018-08-25T17:02:24.066Z,1.20
2018-08-25T17:04:52.049Z,1.10
2018-08-25T17:07:20.035Z,1.23
2018-08-25T17:09:48.038Z,1.10
2018-08-25T17:12:16.081Z,1.17
2018-08-25T17:14:44.094Z,0.90
2018-08-25T17:17:12.072Z,1.07
2018-08-25T17:19:40.115Z,1.10
2018-08-25T17:22:08.218Z,1.07
2018-08-25T17:24:36.434Z,1.20
2018-08-25T17:27:04.901Z,1.03
2018-08-25T17:29:33.174Z,1.40
2018-08-25T17:32:01.458Z,1.60
2018-08-25T17:34:29.860Z,1.27
2018-08-25T17:36:58.207Z,1.53
2018-08-25T17:39:26.562Z,1.60
2018-08-25T17:41:54.809Z,1.47
2018-08-25T17:44:23.103Z,1.00
2018-08-25T17:46:51.107Z,1.05
2018-08-25T17:49:19.142Z,1.20
2018-08-25T17:51:47.120Z,1.27
2018-08-25T17:54:15.197Z,1.87
2018-08-25T17:56:43.235Z,1.90
2018-08-25T17:59:11.261Z,1.85
2018-08-25T18:01:39.321Z,1.45
2018-08-25T18:04:07.310Z,1.77
2018-08-25T18:06:35.366Z,1.47
2018-08-25T18:09:03.800Z,1.87
2018-08-25T18:11:31.809Z,1.60
2018-08-25T18:13:59.891Z,1.75
2018-08-25T18:16:27.886Z,1.80
2018-08-25T18:18:55.877Z,1.85
2018-08-25T18:21:23.845Z,2.60
2018-08-25T18:23:51.875Z,2.05
2018-08-25T18:26:19.885Z,2.12
2018-08-25T18:28:47.889Z,2.00
2018-08-25T18:31:15.944Z,2.20
2018-08-25T18:33:43.969Z,1.72
2018-08-25T18:36:12.017Z,1.85
2018-08-25T18:38:40.069Z,2.40
2018-08-25T18:41:08.033Z,2.50
2018-08-25T18:43:36.094Z,3.10
2018-08-25T18:46:04.081Z,2.95
2018-08-25T18:48:32.089Z,2.52
2018-08-25T18:51:00.098Z,2.30
2018-08-25T18:53:28.110Z,2.40
2018-08-25T18:55:56.074Z,2.25
2018-08-25T18:58:24.056Z,2.37
2018-08-25T19:00:52.077Z,2.10
2018-08-25T19:03:20.193Z,2.55
2018-08-25T19:05:48.228Z,2.30
2018-08-25T19:08:16.213Z,2.30
2018-08-25T19:10:44.207Z,2.30
2018-08-25T19:13:12.228Z,2.30
2018-08-25T19:15:40.250Z,2.90
2018-08-25T19:18:08.220Z,2.67
2018-08-25T19:20:36.218Z,2.25
2018-08-25T19:23:04.176Z,2.70
2018-08-25T19:25:32.209Z,2.92
2018-08-25T19:28:00.188Z,3.30
2018-08-25T19:30:28.164Z,4.00
2018-08-25T19:32:56.125Z,3.98
2018-08-25T19:35:24.138Z,5.42
2018-08-25T19:37:52.077Z,13.05
2018-08-25T19:40:20.090Z,10.48
2018-08-25T19:42:48.041Z,3.90
2018-08-25T19:45:16.453Z,2.60
2018-08-25T19:47:44.445Z,2.10
2018-08-25T19:50:12.421Z,1.98
2018-08-25T19:52:40.397Z,2.20
2018-08-25T19:55:08.402Z,2.22
2018-08-25T19:57:36.374Z,2.17
2018-08-25T20:00:04.388Z,2.65
2018-08-25T20:02:32.420Z,3.00
2018-08-25T20:05:00.382Z,3.10
2018-08-25T20:07:28.341Z,3.50
2018-08-25T20:09:56.317Z,3.42
2018-08-25T20:12:24.311Z,2.85
2018-08-25T20:14:52.304Z,2.60
2018-08-25T20:17:20.305Z,2.50
2018-08-25T20:19:48.338Z,3.02
2018-08-25T20:22:16.345Z,3.80
2018-08-25T20:24:44.373Z,3.17
2018-08-25T20:27:13.231Z,2.62
2018-08-25T20:29:41.216Z,3.22
2018-08-25T20:32:09.171Z,3.35
2018-08-25T20:34:37.146Z,6.92
2018-08-25T20:37:05.217Z,6.70
2018-08-25T20:39:33.204Z,3.70
2018-08-25T20:42:01.235Z,3.80
2018-08-25T20:44:29.245Z,4.10
2018-08-25T20:46:57.210Z,4.53
2018-08-25T20:49:25.237Z,3.65
2018-08-25T20:51:53.253Z,4.15
2018-08-25T20:54:21.204Z,3.45
2018-08-25T20:56:49.174Z,3.52
2018-08-25T20:59:17.127Z,3.10
2018-08-25T21:01:45.103Z,3.60
2018-08-25T21:04:13.105Z,2.92
2018-08-25T21:06:41.175Z,2.83
2018-08-25T21:09:09.973Z,2.70
2018-08-25T21:11:38.013Z,2.72
2018-08-25T21:14:06.053Z,2.92
2018-08-25T21:16:34.127Z,2.90
2018-08-25T21:19:02.112Z,3.08
2018-08-25T21:21:30.081Z,3.00
2018-08-25T21:23:58.158Z,2.62
2018-08-25T21:26:26.171Z,2.27
2018-08-25T21:28:54.133Z,2.50
2018-08-25T21:31:22.191Z,2.27
2018-08-25T21:33:50.192Z,2.50
2018-08-25T21:36:18.217Z,3.27
2018-08-25T21:38:46.183Z,3.85
2018-08-25T21:41:14.229Z,3.12
2018-08-25T21:43:42.193Z,2.50
2018-08-25T21:46:10.251Z,2.98
2018-08-25T21:48:38.278Z,2.92
2018-08-25T21:51:06.290Z,2.67
2018-08-25T21:53:34.264Z,3.40
2018-08-25T21:56:02.294Z,2.90
2018-08-25T21:58:30.374Z,2.52
2018-08-25T22:00:58.472Z,2.85
2018-08-25T22:03:27.704Z,3.10
2018-08-25T22:05:56.463Z,3.20
2018-08-25T22:08:25.078Z,3.40
2018-08-25T22:10:53.666Z,3.15
2018-08-25T22:13:21.952Z,3.10
2018-08-25T22:15:50.133Z,3.50
2018-08-25T22:18:18.736Z,2.75
2018-08-25T22:20:46.706Z,3.45
2018-08-25T22:23:14.652Z,3.35
2018-08-25T22:25:42.665Z,3.00
2018-08-25T22:28:10.638Z,3.80
2018-08-25T22:30:38.608Z,3.95
2018-08-25T22:33:06.581Z,3.00
2018-08-25T22:35:34.563Z,3.10
2018-08-25T22:38:02.552Z,3.00
2018-08-25T22:40:30.609Z,3.50
2018-08-25T22:42:58.591Z,3.27
2018-08-25T22:45:26.565Z,3.00
2018-08-25T22:47:54.559Z,3.20
2018-08-25T22:50:22.591Z,3.85
2018-08-25T22:52:51.593Z,4.17
2018-08-25T22:55:21.201Z,4.72
2018-08-25T22:57:49.228Z,5.72
2018-08-25T23:00:17.343Z,4.60
2018-08-25T23:02:45.337Z,5.25
2018-08-25T23:05:13.306Z,4.83
2018-08-25T23:07:41.252Z,5.55
2018-08-25T23:10:09.257Z,4.45
2018-08-25T23:12:37.285Z,5.10
2018-08-25T23:15:05.244Z,5.35
2018-08-25T23:17:33.256Z,4.55
2018-08-25T23:20:01.247Z,5.60
2018-08-25T23:22:29.299Z,5.20
2018-08-25T23:24:57.280Z,4.92
2018-08-25T23:27:25.615Z,5.90
2018-08-25T23:29:53.965Z,5.12
2018-08-25T23:32:21.989Z,6.10
2018-08-25T23:34:50.025Z,6.00
2018-08-25T23:37:18.014Z,6.20
2018-08-25T23:39:45.973Z,5.80
2018-08-25T23:42:13.994Z,5.70
2018-08-25T23:44:42.006Z,5.55
2018-08-25T23:47:09.972Z,6.17
2018-08-25T23:49:38.000Z,6.05
2018-08-25T23:52:05.981Z,6.00
2018-08-25T23:54:33.937Z,5.40
2018-08-25T23:57:01.949Z,5.50
2018-08-25T23:59:30.021Z,5.95
